»·PEaware :: COA386 MMMX-KIAH

COA386 :: MMMX-KIAH

FLIGHT INFORMATION

Flight Status: Arrived
Operator:
Continental Air Lines
More flights by this operator :: More flights under this callsign
Pilot: Robby H. (353)
Aircraft: BOEING 777-200
(B772)
More flights by this aircraft type
Origin: MMMX Lic Benito Juarez Intl
Mexico
Destination: KIAH G Bush Intercontinental/Houst
United States
More flights between these airports :: More routes between these airports
Route: MAM BRO CRP HAMMU1
File this flight plan on PilotEdge
Remarks: / V /
Altitude:
(Current/Filed)
31,000ft
Speed:
(Current/Filed)
532kts
Departed: 11-Jan-12 05:14 PM
Arrived: 11-Jan-12 06:55 PM
Distance/Time
Traveled:
664nm/1:41
Distance/Time
To Go:
Arrived

Flight Plot

Page will automatically refresh every two minutes.


Map Options




Map Legend


Flown Route
Filed Route
Departure Airport
Arrival Airport
Navaid (VOR, NDB)
Fix

Horizontal Profiles

Position Reports

Time Latitude Longitude Heading Altitude Ground
Speed
11-Jan-12 17:09 19.443210 -99.055501 329 7331ft 0kts
11-Jan-12 17:10 19.443387 -99.055768 291 7331ft 0kts
11-Jan-12 17:11 19.443388 -99.055772 291 7331ft 0kts
11-Jan-12 17:12 19.437469 -99.066922 238 7331ft 119kts
11-Jan-12 17:13 19.410890 -99.113718 238 7554ft 236kts
11-Jan-12 17:14 19.392223 -99.147150 239 7796ft 288kts
11-Jan-12 17:15 19.376625 -99.248405 290 8929ft 422kts
11-Jan-12 17:16 19.462163 -99.312938 0 10802ft 346kts
11-Jan-12 17:17 19.557897 -99.285273 17 12066ft 412kts
11-Jan-12 17:18 19.680611 -99.238975 18 13160ft 493kts
11-Jan-12 17:19 19.815788 -99.187482 18 14187ft 536kts
11-Jan-12 17:20 19.959252 -99.132623 18 15200ft 544kts
11-Jan-12 17:21 20.102285 -99.077590 18 16202ft 543kts
11-Jan-12 17:22 20.243449 -99.022944 18 17193ft 541kts
11-Jan-12 17:23 20.384835 -98.967879 18 18191ft 539kts
11-Jan-12 17:25 20.666285 -98.856500 17 20195ft 533kts
11-Jan-12 17:26 20.780458 -98.810279 17 21017ft 530kts
11-Jan-12 17:27 20.918130 -98.753858 17 22014ft 527kts
11-Jan-12 17:28 21.054997 -98.696772 17 23014ft 523kts
11-Jan-12 17:29 21.190767 -98.639670 17 24014ft 519kts
11-Jan-12 17:30 21.324959 -98.584439 16 25008ft 516kts
11-Jan-12 17:31 21.458013 -98.528844 16 26002ft 512kts
11-Jan-12 17:32 21.590066 -98.471854 17 26999ft 509kts
11-Jan-12 17:33 21.722264 -98.411450 17 28012ft 505kts
11-Jan-12 17:34 21.850019 -98.351453 17 29003ft 501kts
11-Jan-12 17:35 21.977042 -98.290598 17 29999ft 496kts
11-Jan-12 17:36 22.092659 -98.245136 11 30799ft 506kts
11-Jan-12 17:37 22.214650 -98.192128 17 30848ft 510kts
11-Jan-12 17:38 22.344583 -98.129460 17 30845ft 510kts
11-Jan-12 17:39 22.474713 -98.066011 17 30836ft 510kts
11-Jan-12 17:40 22.604336 -98.002765 17 30803ft 509kts
11-Jan-12 17:41 22.733323 -97.939828 17 30803ft 508kts
11-Jan-12 17:42 22.864296 -97.875901 17 30804ft 508kts
11-Jan-12 17:43 22.992778 -97.813210 17 30806ft 508kts
11-Jan-12 17:44 23.122493 -97.751554 16 30803ft 507kts
11-Jan-12 17:45 23.252983 -97.690804 16 30806ft 507kts
11-Jan-12 17:46 23.382639 -97.630573 16 30801ft 507kts
11-Jan-12 17:47 23.512344 -97.570379 16 30804ft 507kts
11-Jan-12 17:48 23.642903 -97.509857 16 30802ft 507kts
11-Jan-12 17:49 23.774318 -97.448984 16 30807ft 507kts
11-Jan-12 17:50 23.903693 -97.389059 16 30810ft 507kts
11-Jan-12 17:51 24.034666 -97.328438 16 30810ft 507kts
11-Jan-12 17:52 24.162701 -97.269245 16 30806ft 506kts
11-Jan-12 17:53 24.295139 -97.210060 15 30809ft 506kts
11-Jan-12 17:54 24.425929 -97.152476 15 30807ft 506kts
11-Jan-12 17:55 24.555947 -97.095335 15 30808ft 505kts
11-Jan-12 17:56 24.687660 -97.037501 15 30809ft 505kts
11-Jan-12 17:57 24.818098 -96.980264 15 30808ft 505kts
11-Jan-12 17:58 24.949410 -96.922637 15 30812ft 505kts
11-Jan-12 17:59 25.080753 -96.865065 15 30807ft 505kts
11-Jan-12 18:00 25.211637 -96.809783 13 30802ft 504kts
11-Jan-12 18:01 25.343290 -96.757495 13 30805ft 503kts
11-Jan-12 18:02 25.477322 -96.704724 13 30794ft 503kts
11-Jan-12 18:03 25.610048 -96.652560 13 30791ft 504kts
11-Jan-12 18:04 25.742436 -96.600550 13 30794ft 503kts
11-Jan-12 18:05 25.875650 -96.548232 13 30791ft 503kts
11-Jan-12 18:06 26.006971 -96.496674 13 30792ft 503kts
11-Jan-12 18:07 26.138510 -96.443216 13 30793ft 504kts
11-Jan-12 18:08 26.250156 -96.397129 13 30790ft 504kts
11-Jan-12 18:09 26.381134 -96.342977 13 30793ft 504kts
11-Jan-12 18:10 26.512847 -96.288559 13 30792ft 504kts
11-Jan-12 18:11 26.646078 -96.233551 13 30793ft 504kts
11-Jan-12 18:12 26.776250 -96.179284 13 30772ft 502kts
11-Jan-12 18:13 26.908004 -96.123547 13 30756ft 501kts
11-Jan-12 18:14 27.038603 -96.067652 13 30740ft 501kts
11-Jan-12 18:15 27.172461 -96.037202 2 30735ft 488kts
11-Jan-12 18:16 27.305512 -95.998926 1 30736ft 487kts
11-Jan-12 18:17 27.438839 -95.966195 9 30736ft 496kts
11-Jan-12 18:18 27.558327 -95.941748 6 30651ft 495kts
11-Jan-12 18:19 27.695422 -95.907882 2 28956ft 498kts
11-Jan-12 18:20 27.832288 -95.870631 1 27259ft 500kts
11-Jan-12 18:21 27.969458 -95.836195 9 25581ft 515kts
11-Jan-12 18:22 28.110456 -95.805677 9 23888ft 521kts
11-Jan-12 18:23 28.251652 -95.772581 5 22194ft 517kts
11-Jan-12 18:24 28.393715 -95.733382 2 20491ft 519kts
11-Jan-12 18:25 28.399113 -95.732655 1 20428ft 519kts
11-Jan-12 18:26 28.399113 -95.732655 1 20428ft 519kts
11-Jan-12 18:27 28.399113 -95.732655 1 20428ft 519kts
11-Jan-12 18:28 28.399113 -95.732655 1 20428ft 519kts
11-Jan-12 18:29 28.399113 -95.732655 1 20428ft 519kts
11-Jan-12 18:30 28.399113 -95.732655 1 20428ft 519kts
11-Jan-12 18:31 28.399113 -95.732655 1 20428ft 519kts
11-Jan-12 18:32 28.399113 -95.732655 1 20428ft 519kts
11-Jan-12 18:33 28.399113 -95.732655 1 20428ft 519kts
11-Jan-12 18:34 28.399113 -95.732655 1 20428ft 519kts
11-Jan-12 18:35 28.399113 -95.732655 1 20428ft 519kts
11-Jan-12 18:36 28.399113 -95.732655 1 20428ft 519kts
11-Jan-12 18:37 28.448062 -95.724649 6 19689ft 525kts
11-Jan-12 18:38 28.592564 -95.684029 4 17185ft 530kts
11-Jan-12 18:39 28.739040 -95.651088 11 14707ft 543kts
11-Jan-12 18:40 28.885145 -95.617963 7 12268ft 548kts
11-Jan-12 18:41 29.034453 -95.574982 10 9772ft 555kts
11-Jan-12 18:42 29.186962 -95.543784 10 7313ft 562kts
11-Jan-12 18:43 29.340746 -95.502653 3 4817ft 565kts
11-Jan-12 18:44 29.461011 -95.471795 10 3937ft 391kts
11-Jan-12 18:45 29.543086 -95.451976 3 2723ft 268kts
11-Jan-12 18:46 29.609514 -95.438388 354 3368ft 230kts
11-Jan-12 18:47 29.664581 -95.419897 6 2742ft 218kts
11-Jan-12 18:48 29.724529 -95.403219 3 3257ft 228kts
11-Jan-12 18:49 29.782233 -95.375924 7 3324ft 247kts
11-Jan-12 18:50 29.834559 -95.342347 16 2284ft 222kts
11-Jan-12 18:51 29.902201 -95.331611 0 1342ft 219kts
11-Jan-12 18:52 29.952938 -95.341795 336 272ft 163kts
11-Jan-12 18:53 29.983096 -95.357655 3 112ft 0kts

Navigation Log

Ident Type
Flight plan parsing failed, navigation log unavailable